Time;durP1;ratioP1;P1;durP2;ratioP2;P2;SDS_P1;SDS_P2;PMS_P1;PMS_P2;Temp;Humidity;BMP_temperature;BMP_pressure;BME280_temperature;BME280_humidity;BME280_pressure;Samples;Min_cycle;Max_cycle;Signal;HPM_P1;HPM_P2
2023/02/23 00:01:18;;;;;;;61.78;48.72;;;;;;;;;;5053899;28;20033;-63
2023/02/23 00:03:44;;;;;;;65.50;50.85;;;;;;;;;;5053184;28;20116;-63
2023/02/23 00:06:10;;;;;;;63.05;50.35;;;;;;;;;;5053496;28;20496;-64
2023/02/23 00:08:37;;;;;;;64.88;51.65;;;;;;;;;;5034306;28;20103;-63
2023/02/23 00:11:04;;;;;;;61.58;49.90;;;;;;;;;;5053505;28;20100;-63
2023/02/23 00:13:30;;;;;;;66.82;51.28;;;;;;;;;;5052460;28;20027;-62
2023/02/23 00:15:56;;;;;;;62.90;47.97;;;;;;;;;;5049942;28;20714;-62
2023/02/23 00:18:22;;;;;;;63.67;46.92;;;;;;;;;;5034608;28;20062;-63
2023/02/23 00:20:56;;;;;;;62.97;50.13;;;;;;;;;;5052572;28;20083;-61
2023/02/23 00:23:22;;;;;;;67.10;50.55;;;;;;;;;;4336694;23;10001294;-61
2023/02/23 00:25:48;;;;;;;67.20;51.20;;;;;;;;;;5031186;28;20038;-61
2023/02/23 00:28:15;;;;;;;65.43;51.40;;;;;;;;;;5031957;28;20044;-63
2023/02/23 00:30:41;;;;;;;68.20;52.17;;;;;;;;;;5032144;28;20026;-60
2023/02/23 00:33:08;;;;;;;71.13;53.40;;;;;;;;;;5013740;28;20199;-62
2023/02/23 00:35:35;;;;;;;70.82;52.35;;;;;;;;;;5014602;28;20398;-61
2023/02/23 00:38:01;;;;;;;71.97;53.33;;;;;;;;;;5014246;28;20029;-61
2023/02/23 00:40:28;;;;;;;76.72;54.35;;;;;;;;;;5014536;28;20032;-62
2023/02/23 00:42:54;;;;;;;69.20;53.72;;;;;;;;;;5032882;28;20033;-61
2023/02/23 00:45:20;;;;;;;76.25;54.80;;;;;;;;;;5032215;28;20611;-62
2023/02/23 00:47:47;;;;;;;85.03;57.25;;;;;;;;;;5032432;28;20031;-61
2023/02/23 00:50:15;;;;;;;80.40;56.47;;;;;;;;;;5032923;28;20025;-61
2023/02/23 00:52:42;;;;;;;78.30;54.95;;;;;;;;;;5032831;28;20033;-62
2023/02/23 00:55:09;;;;;;;81.22;55.90;;;;;;;;;;5032073;28;20017;-62
2023/02/23 00:57:35;;;;;;;86.63;57.53;;;;;;;;;;5031392;28;20061;-60
2023/02/23 01:00:02;;;;;;;88.75;58.63;;;;;;;;;;5031534;28;20026;-61
2023/02/23 01:02:31;;;;;;;92.50;60.08;;;;;;;;;;5032659;28;20021;-59
2023/02/23 01:04:57;;;;;;;97.80;59.80;;;;;;;;;;5031255;28;20022;-61
2023/02/23 01:07:24;;;;;;;89.97;58.47;;;;;;;;;;5031200;28;20032;-62
2023/02/23 01:09:51;;;;;;;90.43;62.47;;;;;;;;;;5031189;28;20017;-61
2023/02/23 01:12:17;;;;;;;94.18;61.70;;;;;;;;;;5032374;28;20032;-61
2023/02/23 01:14:42;;;;;;;97.70;62.65;;;;;;;;;;5030620;28;20018;-55
2023/02/23 01:17:08;;;;;;;94.40;61.55;;;;;;;;;;5032596;28;20040;-57
2023/02/23 01:19:34;;;;;;;92.13;58.88;;;;;;;;;;5030699;28;20045;-61
2023/02/23 01:22:03;;;;;;;105.75;62.63;;;;;;;;;;5032097;28;20116;-56
2023/02/23 01:24:29;;;;;;;99.47;60.95;;;;;;;;;;5031065;28;20116;-59
2023/02/23 01:26:55;;;;;;;94.03;62.45;;;;;;;;;;5030712;28;20022;-61
2023/02/23 01:29:21;;;;;;;97.70;62.63;;;;;;;;;;5031975;28;20034;-62
2023/02/23 01:31:51;;;;;;;102.65;63.85;;;;;;;;;;5031953;28;20027;-59
2023/02/23 01:34:18;;;;;;;97.20;62.88;;;;;;;;;;5031094;28;20025;-62
2023/02/23 01:36:44;;;;;;;105.55;64.22;;;;;;;;;;5030756;28;20083;-62
2023/02/23 01:39:12;;;;;;;104.47;63.08;;;;;;;;;;5030614;28;20021;-61
2023/02/23 01:41:41;;;;;;;;;;;;;;;;;;5031056;28;20064;-62
2023/02/23 01:44:13;;;;;;;96.53;61.65;;;;;;;;;;5030998;28;20375;-60
2023/02/23 01:46:49;;;;;;;99.35;63.50;;;;;;;;;;5030613;28;20057;-61
2023/02/23 01:49:19;;;;;;;110.03;66.75;;;;;;;;;;5031851;28;20029;-59
2023/02/23 01:51:47;;;;;;;102.70;66.55;;;;;;;;;;5031909;28;20100;-60
2023/02/23 01:54:14;;;;;;;105.15;65.50;;;;;;;;;;5031103;28;20033;-62
2023/02/23 01:56:43;;;;;;;98.47;62.97;;;;;;;;;;5031728;28;20498;-62
2023/02/23 01:59:11;;;;;;;110.05;67.63;;;;;;;;;;5030390;28;20359;-61
2023/02/23 02:01:39;;;;;;;108.00;68.00;;;;;;;;;;5031728;28;20138;-61
2023/02/23 02:04:05;;;;;;;98.88;64.22;;;;;;;;;;5030860;28;20276;-61
2023/02/23 02:06:32;;;;;;;114.47;67.00;;;;;;;;;;5030441;28;20456;-60
2023/02/23 02:08:59;;;;;;;105.95;67.13;;;;;;;;;;5031569;28;20036;-60
2023/02/23 02:11:35;;;;;;;98.03;65.25;;;;;;;;;;5031609;28;20021;-61
2023/02/23 02:14:16;;;;;;;105.78;66.70;;;;;;;;;;5029802;28;20048;-63
2023/02/23 02:16:47;;;;;;;103.68;66.75;;;;;;;;;;5031833;28;20120;-61
2023/02/23 02:19:32;;;;;;;100.95;66.50;;;;;;;;;;5030454;28;20033;-61
2023/02/23 02:22:04;;;;;;;104.72;66.70;;;;;;;;;;5030761;28;20401;-60
2023/02/23 02:24:51;;;;;;;106.88;71.20;;;;;;;;;;5031014;28;20041;-61
2023/02/23 02:27:26;;;;;;;107.82;67.88;;;;;;;;;;5031595;28;20022;-62
2023/02/23 02:29:58;;;;;;;115.13;71.53;;;;;;;;;;5031475;28;20018;-62
2023/02/23 02:32:42;;;;;;;100.57;68.20;;;;;;;;;;5034348;28;20634;-62
2023/02/23 02:35:08;;;;;;;120.43;70.88;;;;;;;;;;5034537;28;20071;-62
2023/02/23 02:37:55;;;;;;;101.57;69.18;;;;;;;;;;5035439;28;20017;-62
2023/02/23 02:40:31;;;;;;;107.13;70.72;;;;;;;;;;5035337;28;20028;-61
2023/02/23 02:42:57;;;;;;;112.32;70.63;;;;;;;;;;5033663;28;20120;-61
2023/02/23 02:45:30;;;;;;;115.45;76.53;;;;;;;;;;5034663;28;20112;-61
2023/02/23 02:47:59;;;;;;;116.68;75.00;;;;;;;;;;5033882;28;20480;-61
2023/02/23 02:50:39;;;;;;;105.68;73.57;;;;;;;;;;5036125;28;20401;-62
2023/02/23 02:53:09;;;;;;;108.18;76.18;;;;;;;;;;5033992;28;20132;-55
2023/02/23 02:55:37;;;;;;;107.43;75.60;;;;;;;;;;5035254;28;20021;-58
2023/02/23 02:58:10;;;;;;;104.80;71.72;;;;;;;;;;5035184;28;20097;-59
2023/02/23 04:19:32;;;;;;;115.35;81.15;;;;;;;;;;5013893;28;20077;-60
2023/02/23 04:21:58;;;;;;;118.38;80.90;;;;;;;;;;5013707;28;20034;-59
2023/02/23 04:24:24;;;;;;;115.05;81.00;;;;;;;;;;5012463;28;20045;-60
2023/02/23 04:26:50;;;;;;;110.47;80.13;;;;;;;;;;4995722;28;20054;-62
2023/02/23 04:29:19;;;;;;;114.43;81.22;;;;;;;;;;5013354;28;20017;-60
2023/02/23 04:31:46;;;;;;;121.75;79.97;;;;;;;;;;4996017;28;20386;-60
2023/02/23 04:34:13;;;;;;;118.45;82.13;;;;;;;;;;5012284;28;20022;-55
2023/02/23 04:36:39;;;;;;;107.80;80.25;;;;;;;;;;4995694;28;20052;-60
2023/02/23 04:39:05;;;;;;;116.95;82.63;;;;;;;;;;5013156;28;20026;-59
2023/02/23 04:41:31;;;;;;;118.47;82.45;;;;;;;;;;5013253;28;20080;-59
2023/02/23 04:43:57;;;;;;;116.65;80.50;;;;;;;;;;5012262;28;20479;-61
2023/02/23 04:46:23;;;;;;;115.18;81.10;;;;;;;;;;5012870;28;20025;-61
2023/02/23 04:48:49;;;;;;;113.57;83.47;;;;;;;;;;4995297;28;20058;-60
2023/02/23 04:51:15;;;;;;;117.90;83.55;;;;;;;;;;5012893;28;20028;-61
2023/02/23 04:53:41;;;;;;;118.03;84.18;;;;;;;;;;5011415;28;20022;-61
2023/02/23 04:56:07;;;;;;;113.60;84.30;;;;;;;;;;5012900;28;20025;-61
2023/02/23 04:58:33;;;;;;;119.38;84.32;;;;;;;;;;4995120;28;20080;-61
2023/02/23 05:01:06;;;;;;;123.50;83.18;;;;;;;;;;5012648;28;20069;-61
2023/02/23 05:03:33;;;;;;;115.10;83.78;;;;;;;;;;5011896;28;20045;-59
2023/02/23 05:05:59;;;;;;;123.18;86.07;;;;;;;;;;5012910;28;20044;-61
2023/02/23 05:08:25;;;;;;;113.30;84.82;;;;;;;;;;4994895;28;20467;-60
2023/02/23 05:10:51;;;;;;;123.53;87.72;;;;;;;;;;5012382;28;20026;-61
2023/02/23 05:13:17;;;;;;;118.57;85.97;;;;;;;;;;4993973;28;20022;-61
2023/02/23 05:15:43;;;;;;;123.80;84.93;;;;;;;;;;5012486;28;20072;-61
2023/02/23 05:18:09;;;;;;;122.93;87.03;;;;;;;;;;5012411;28;20049;-61
2023/02/23 05:20:35;;;;;;;113.53;83.70;;;;;;;;;;5019302;28;20032;-60
2023/02/23 05:23:01;;;;;;;127.30;88.20;;;;;;;;;;5023657;28;20033;-59
2023/02/23 05:25:27;;;;;;;136.85;87.88;;;;;;;;;;5024533;28;20034;-60
2023/02/23 05:27:53;;;;;;;122.18;85.10;;;;;;;;;;5012808;28;20025;-61
2023/02/23 05:30:19;;;;;;;116.90;81.15;;;;;;;;;;5031680;28;20053;-60
2023/02/23 05:32:45;;;;;;;118.90;83.68;;;;;;;;;;5005606;28;20025;-60
2023/02/23 05:35:11;;;;;;;124.07;82.72;;;;;;;;;;5030499;28;20025;-61
2023/02/23 05:37:37;;;;;;;111.43;81.55;;;;;;;;;;5022934;28;20056;-59
2023/02/23 05:40:04;;;;;;;111.72;81.18;;;;;;;;;;5011888;28;20123;-60
2023/02/23 05:42:30;;;;;;;118.82;86.43;;;;;;;;;;5011900;28;20554;-60
2023/02/23 05:44:56;;;;;;;120.57;82.72;;;;;;;;;;5007814;28;20033;-60
2023/02/23 05:47:22;;;;;;;117.47;84.38;;;;;;;;;;5023435;28;20026;-60
2023/02/23 05:49:48;;;;;;;120.55;82.85;;;;;;;;;;5004604;28;20021;-60
2023/02/23 05:52:14;;;;;;;119.85;83.90;;;;;;;;;;5004789;28;20477;-60
2023/02/23 05:54:40;;;;;;;123.85;83.15;;;;;;;;;;5010845;28;20041;-60
2023/02/23 05:57:07;;;;;;;109.40;78.70;;;;;;;;;;5025362;28;20029;-60
2023/02/23 05:59:33;;;;;;;120.28;83.47;;;;;;;;;;5031139;28;20022;-59
2023/02/23 06:01:59;;;;;;;119.13;82.03;;;;;;;;;;5031118;28;20025;-61
2023/02/23 06:04:25;;;;;;;120.95;81.32;;;;;;;;;;5026509;28;20026;-60
2023/02/23 06:06:51;;;;;;;120.35;80.07;;;;;;;;;;5010076;28;20113;-59
2023/02/23 06:09:17;;;;;;;123.22;84.35;;;;;;;;;;5011428;28;20101;-60
2023/02/23 06:11:43;;;;;;;123.57;83.03;;;;;;;;;;5011635;28;20026;-60
2023/02/23 06:14:09;;;;;;;119.03;82.07;;;;;;;;;;5010508;28;20068;-58
2023/02/23 06:16:35;;;;;;;122.22;85.78;;;;;;;;;;4993780;28;20065;-60
2023/02/23 06:19:01;;;;;;;132.23;83.57;;;;;;;;;;4995288;28;20084;-59
2023/02/23 06:21:27;;;;;;;123.65;82.18;;;;;;;;;;5017580;28;20615;-57
2023/02/23 06:23:53;;;;;;;129.90;83.55;;;;;;;;;;5031238;28;20041;-58
2023/02/23 06:26:19;;;;;;;124.53;82.43;;;;;;;;;;5058784;22;20190;-60
2023/02/23 06:28:45;;;;;;;114.68;81.35;;;;;;;;;;5051207;28;20029;-62
2023/02/23 06:31:11;;;;;;;120.45;79.85;;;;;;;;;;5051447;28;20027;-60
2023/02/23 06:33:37;;;;;;;119.43;79.47;;;;;;;;;;5051005;28;20490;-60
2023/02/23 06:36:03;;;;;;;115.97;78.25;;;;;;;;;;5033230;28;20091;-58
2023/02/23 06:38:29;;;;;;;109.72;76.45;;;;;;;;;;5050985;28;20040;-63
2023/02/23 06:40:55;;;;;;;111.85;78.30;;;;;;;;;;5050980;28;20017;-60
2023/02/23 06:43:21;;;;;;;110.50;77.32;;;;;;;;;;5031757;28;20029;-58
2023/02/23 06:45:47;;;;;;;122.95;80.38;;;;;;;;;;5032556;28;20071;-59
2023/02/23 06:48:13;;;;;;;116.68;79.95;;;;;;;;;;5032406;28;20041;-57
2023/02/23 06:50:40;;;;;;;117.97;81.43;;;;;;;;;;5050289;28;20032;-62
2023/02/23 06:53:06;;;;;;;131.05;80.93;;;;;;;;;;5032003;28;20121;-62
2023/02/23 06:55:32;;;;;;;122.20;83.07;;;;;;;;;;5032927;28;20255;-63
2023/02/23 06:57:58;;;;;;;129.05;80.88;;;;;;;;;;5032494;28;20119;-59
2023/02/23 07:00:24;;;;;;;128.27;80.65;;;;;;;;;;5051669;28;20096;-63
2023/02/23 07:02:50;;;;;;;132.73;80.43;;;;;;;;;;5032983;28;20025;-59
2023/02/23 07:05:16;;;;;;;110.40;77.15;;;;;;;;;;5050170;28;20025;-63
2023/02/23 07:07:42;;;;;;;119.95;79.38;;;;;;;;;;5050757;28;20088;-60
2023/02/23 07:10:09;;;;;;;125.18;78.97;;;;;;;;;;5050460;28;20025;-61
2023/02/23 07:12:35;;;;;;;118.72;80.03;;;;;;;;;;5052810;28;20024;-61
2023/02/23 07:15:01;;;;;;;114.22;75.65;;;;;;;;;;5062143;28;20110;-61
2023/02/23 07:17:27;;;;;;;125.10;80.28;;;;;;;;;;5054107;28;20008;-63
2023/02/23 07:19:53;;;;;;;120.65;79.47;;;;;;;;;;5074318;28;20078;-62
2023/02/23 07:22:19;;;;;;;118.55;79.80;;;;;;;;;;5066261;28;20055;-63
2023/02/23 07:24:45;;;;;;;122.13;79.53;;;;;;;;;;5053020;28;20032;-62
2023/02/23 07:27:11;;;;;;;121.93;75.43;;;;;;;;;;5036183;28;20115;-63
2023/02/23 07:29:37;;;;;;;113.65;76.88;;;;;;;;;;5053911;28;20044;-61
2023/02/23 07:32:03;;;;;;;112.75;71.50;;;;;;;;;;5035770;28;20610;-60
2023/02/23 07:34:29;;;;;;;115.70;75.13;;;;;;;;;;5053212;28;20441;-61
2023/02/23 07:36:55;;;;;;;123.82;75.53;;;;;;;;;;5053788;28;20040;-62
2023/02/23 07:39:21;;;;;;;130.27;79.80;;;;;;;;;;5054080;28;20056;-59
2023/02/23 07:41:47;;;;;;;121.57;76.47;;;;;;;;;;5035827;28;20025;-65
2023/02/23 07:44:13;;;;;;;134.45;81.32;;;;;;;;;;5035482;28;20051;-62
2023/02/23 07:46:40;;;;;;;122.72;78.22;;;;;;;;;;5053854;28;20021;-61
2023/02/23 07:49:06;;;;;;;117.32;78.13;;;;;;;;;;5053178;28;20366;-61
2023/02/23 07:51:32;;;;;;;111.80;72.00;;;;;;;;;;5053583;28;20190;-63
2023/02/23 07:54:03;;;;;;;115.78;74.63;;;;;;;;;;5035170;28;20495;-65
2023/02/23 07:56:29;;;;;;;122.07;74.20;;;;;;;;;;5036181;28;20029;-62
2023/02/23 07:58:55;;;;;;;121.72;75.72;;;;;;;;;;5035968;28;20040;-63
2023/02/23 08:01:21;;;;;;;115.45;76.43;;;;;;;;;;5053732;28;20568;-64
2023/02/23 08:03:49;;;;;;;128.60;76.78;;;;;;;;;;5053070;28;20499;-62
2023/02/23 08:06:16;;;;;;;125.43;74.03;;;;;;;;;;5053405;28;20450;-61
2023/02/23 08:08:42;;;;;;;118.78;76.07;;;;;;;;;;5035988;28;20359;-63
2023/02/23 08:11:08;;;;;;;133.43;80.95;;;;;;;;;;5042657;28;20059;-64
2023/02/23 08:13:34;;;;;;;121.45;75.32;;;;;;;;;;5032623;28;20481;-63
2023/02/23 08:16:01;;;;;;;136.77;80.50;;;;;;;;;;5015590;28;20026;-64
2023/02/23 08:18:27;;;;;;;133.77;78.43;;;;;;;;;;5033426;28;20044;-62
2023/02/23 08:20:59;;;;;;;125.95;74.97;;;;;;;;;;5033356;28;20391;-63
2023/02/23 08:23:25;;;;;;;122.40;75.68;;;;;;;;;;5025275;28;20421;-59
2023/02/23 08:25:53;;;;;;;127.13;80.28;;;;;;;;;;5033091;28;20063;-63
2023/02/23 08:28:19;;;;;;;122.18;74.82;;;;;;;;;;5032255;28;20526;-63
2023/02/23 08:30:45;;;;;;;115.75;73.43;;;;;;;;;;5015123;28;20060;-62
2023/02/23 08:33:11;;;;;;;132.27;81.22;;;;;;;;;;5032641;28;20021;-61
2023/02/23 08:35:37;;;;;;;115.90;73.32;;;;;;;;;;5015574;28;20051;-60
2023/02/23 08:38:03;;;;;;;121.32;78.47;;;;;;;;;;5033550;28;20033;-60
2023/02/23 08:40:29;;;;;;;114.70;73.53;;;;;;;;;;5033514;28;20365;-62
2023/02/23 08:42:55;;;;;;;102.10;70.20;;;;;;;;;;5033117;28;20032;-63
2023/02/23 08:45:21;;;;;;;118.97;78.70;;;;;;;;;;5032539;28;20036;-63
2023/02/23 08:47:47;;;;;;;112.53;74.32;;;;;;;;;;5034826;28;20029;-63
2023/02/23 08:50:13;;;;;;;108.45;72.65;;;;;;;;;;5035631;28;20017;-62
2023/02/23 08:52:40;;;;;;;106.78;72.03;;;;;;;;;;5052906;28;20021;-63
2023/02/23 08:55:06;;;;;;;102.40;71.15;;;;;;;;;;5033987;28;20016;-63
2023/02/23 08:57:33;;;;;;;105.10;68.88;;;;;;;;;;5052767;28;20033;-61
2023/02/23 08:59:59;;;;;;;97.35;68.57;;;;;;;;;;5053020;28;20029;-63
2023/02/23 09:02:26;;;;;;;98.32;64.68;;;;;;;;;;5039723;28;20092;-61
2023/02/23 09:04:52;;;;;;;90.22;63.92;;;;;;;;;;5059548;28;20094;-55
2023/02/23 09:07:21;;;;;;;108.35;70.20;;;;;;;;;;5052465;28;20025;-63
2023/02/23 09:09:52;;;;;;;95.57;67.68;;;;;;;;;;5034502;28;20021;-60
2023/02/23 09:12:18;;;;;;;97.47;68.25;;;;;;;;;;5035042;28;20025;-61
2023/02/23 09:14:44;;;;;;;105.80;70.28;;;;;;;;;;5051702;28;20103;-63
2023/02/23 09:17:11;;;;;;;98.80;67.93;;;;;;;;;;5052236;28;20025;-64
2023/02/23 09:19:37;;;;;;;103.95;68.70;;;;;;;;;;5034343;28;20029;-64
2023/02/23 09:22:03;;;;;;;105.78;69.97;;;;;;;;;;5052369;28;20025;-64
2023/02/23 09:24:29;;;;;;;110.53;73.18;;;;;;;;;;5051941;28;20052;-63
2023/02/23 09:26:55;;;;;;;107.88;69.20;;;;;;;;;;5052070;28;20028;-64
2023/02/23 09:29:21;;;;;;;99.70;66.40;;;;;;;;;;5034755;28;20025;-64
2023/02/23 09:31:50;;;;;;;99.57;65.60;;;;;;;;;;5050497;28;20462;-61
2023/02/23 09:34:15;;;;;;;98.70;67.85;;;;;;;;;;5033734;28;20013;-63
2023/02/23 09:36:41;;;;;;;100.05;66.32;;;;;;;;;;5034210;28;20136;-64
2023/02/23 09:39:07;;;;;;;91.47;63.58;;;;;;;;;;5051922;28;20033;-64
2023/02/23 09:41:33;;;;;;;92.65;66.28;;;;;;;;;;5051738;28;20021;-63
2023/02/23 09:44:15;;;;;;;99.03;66.57;;;;;;;;;;5051318;28;20035;-64
2023/02/23 09:46:45;;;;;;;106.05;66.10;;;;;;;;;;5051691;28;20029;-62
2023/02/23 09:49:15;;;;;;;91.30;63.35;;;;;;;;;;5051508;28;20021;-63
2023/02/23 09:51:45;;;;;;;95.38;64.15;;;;;;;;;;5034005;28;20462;-65
2023/02/23 09:54:12;;;;;;;90.40;63.25;;;;;;;;;;5033064;28;20033;-63
2023/02/23 09:56:40;;;;;;;90.13;64.07;;;;;;;;;;5051758;28;20026;-64
2023/02/23 09:59:09;;;;;;;96.45;64.18;;;;;;;;;;5033913;28;20060;-63
2023/02/23 10:01:46;;;;;;;94.50;64.55;;;;;;;;;;5033621;28;20767;-63
2023/02/23 10:04:19;;;;;;;95.65;63.53;;;;;;;;;;5033202;28;20035;-65
2023/02/23 10:06:48;;;;;;;90.05;60.05;;;;;;;;;;5051507;28;20049;-63
2023/02/23 10:09:21;;;;;;;91.80;61.15;;;;;;;;;;5051787;28;20017;-65
2023/02/23 10:11:59;;;;;;;90.97;62.00;;;;;;;;;;5051498;28;20017;-64
2023/02/23 10:14:34;;;;;;;84.15;54.03;;;;;;;;;;5033145;28;20029;-62
2023/02/23 10:17:24;;;;;;;80.65;55.58;;;;;;;;;;5033401;28;20032;-62
2023/02/23 10:19:56;;;;;;;80.93;54.13;;;;;;;;;;5051531;28;20063;-63
2023/02/23 10:22:23;;;;;;;76.00;51.70;;;;;;;;;;5051258;28;20021;-64
2023/02/23 10:25:07;;;;;;;82.45;54.35;;;;;;;;;;5050451;28;20048;-62
2023/02/23 10:27:40;;;;;;;78.75;54.67;;;;;;;;;;5051458;28;20029;-64
2023/02/23 10:30:18;;;;;;;80.15;53.67;;;;;;;;;;5049816;28;20017;-64
2023/02/23 10:32:47;;;;;;;75.10;52.92;;;;;;;;;;5051294;28;20044;-63
2023/02/23 10:35:14;;;;;;;77.85;54.50;;;;;;;;;;5050591;28;20098;-64
2023/02/23 10:37:40;;;;;;;69.10;51.27;;;;;;;;;;5033467;28;20123;-59
2023/02/23 10:40:07;;;;;;;69.03;50.38;;;;;;;;;;5033483;28;20186;-65
2023/02/23 10:42:34;;;;;;;72.25;49.78;;;;;;;;;;5051499;28;20057;-63
2023/02/23 10:45:00;;;;;;;72.78;50.15;;;;;;;;;;5032442;28;20036;-65
2023/02/23 10:47:28;;;;;;;69.50;51.45;;;;;;;;;;5050975;28;20111;-63
2023/02/23 10:49:55;;;;;;;67.45;49.63;;;;;;;;;;5048265;28;20057;-65
2023/02/23 10:52:24;;;;;;;71.38;48.80;;;;;;;;;;5058537;28;20523;-60
2023/02/23 10:54:51;;;;;;;70.97;50.30;;;;;;;;;;5064400;28;20028;-60
2023/02/23 10:57:19;;;;;;;63.55;48.05;;;;;;;;;;5068147;28;20103;-63
2023/02/23 11:00:01;;;;;;;64.97;46.72;;;;;;;;;;5058615;28;20074;-63
2023/02/23 11:02:29;;;;;;;66.30;47.42;;;;;;;;;;5041114;28;20048;-63
2023/02/23 11:04:56;;;;;;;71.03;47.30;;;;;;;;;;5055399;28;20028;-59
2023/02/23 11:07:24;;;;;;;64.25;47.22;;;;;;;;;;5074610;28;20028;-65
2023/02/23 11:09:51;;;;;;;69.43;45.45;;;;;;;;;;5055229;28;20033;-63
2023/02/23 11:12:23;;;;;;;71.32;47.47;;;;;;;;;;5042693;28;20021;-63
2023/02/23 11:14:54;;;;;;;66.53;46.17;;;;;;;;;;5037286;28;20032;-63
2023/02/23 11:17:32;;;;;;;66.03;46.13;;;;;;;;;;5036088;28;20397;-62
2023/02/23 11:20:17;;;;;;;68.03;45.72;;;;;;;;;;5052038;28;20124;-61
2023/02/23 11:22:43;;;;;;;67.35;45.47;;;;;;;;;;5058403;28;20033;-63
2023/02/23 11:25:20;;;;;;;67.13;46.38;;;;;;;;;;5024415;28;20029;-63
2023/02/23 11:27:50;;;;;;;63.55;43.70;;;;;;;;;;5047134;28;20029;-62
2023/02/23 11:30:19;;;;;;;68.05;47.33;;;;;;;;;;5031562;28;20035;-64
2023/02/23 11:32:50;;;;;;;68.40;48.38;;;;;;;;;;5058227;28;20021;-63
2023/02/23 11:35:16;;;;;;;61.35;44.00;;;;;;;;;;5024026;28;20025;-64
2023/02/23 11:37:42;;;;;;;64.20;44.75;;;;;;;;;;5048246;28;20070;-65
2023/02/23 11:40:20;;;;;;;63.92;43.97;;;;;;;;;;5024136;28;20176;-62
2023/02/23 11:43:06;;;;;;;64.88;44.58;;;;;;;;;;5024816;28;20522;-64
2023/02/23 11:45:33;;;;;;;59.50;41.88;;;;;;;;;;5054638;28;20028;-64
2023/02/23 11:48:04;;;;;;;59.03;42.53;;;;;;;;;;5053481;28;20120;-63
2023/02/23 11:50:32;;;;;;;54.28;42.00;;;;;;;;;;5060703;28;20021;-62
2023/02/23 11:53:01;;;;;;;59.97;43.28;;;;;;;;;;5061960;28;20017;-63
2023/02/23 11:55:28;;;;;;;58.13;43.78;;;;;;;;;;5053492;28;20028;-64
2023/02/23 11:58:07;;;;;;;52.75;40.28;;;;;;;;;;5044045;28;20025;-63
2023/02/23 12:00:33;;;;;;;;;;;;;;;;;;5034101;28;20033;-66
2023/02/23 12:03:00;;;;;;;50.47;39.53;;;;;;;;;;5043886;28;19962;-64
2023/02/23 12:05:28;;;;;;;51.08;38.67;;;;;;;;;;5037711;28;20037;-63
2023/02/23 12:08:00;;;;;;;44.90;35.85;;;;;;;;;;5015675;28;20036;-64
2023/02/23 12:10:46;;;;;;;48.00;36.60;;;;;;;;;;5012759;28;20025;-62
2023/02/23 12:13:18;;;;;;;51.90;38.40;;;;;;;;;;5034580;28;20033;-63
2023/02/23 12:15:50;;;;;;;50.75;38.28;;;;;;;;;;5035395;28;20469;-64
2023/02/23 12:18:35;;;;;;;50.95;37.40;;;;;;;;;;5035929;28;20056;-64
2023/02/23 12:21:24;;;;;;;48.17;38.67;;;;;;;;;;5053436;28;20509;-66
2023/02/23 12:23:54;;;;;;;45.22;35.67;;;;;;;;;;5049086;28;20497;-64
2023/02/23 12:26:22;;;;;;;52.38;39.75;;;;;;;;;;5067298;22;20107;-60
2023/02/23 12:28:58;;;;;;;49.75;37.63;;;;;;;;;;5032675;28;20037;-58
2023/02/23 12:31:30;;;;;;;52.25;38.17;;;;;;;;;;4994517;28;20049;-61
2023/02/23 12:34:17;;;;;;;47.15;37.70;;;;;;;;;;5005052;28;20022;-62
2023/02/23 12:36:47;;;;;;;53.03;39.47;;;;;;;;;;4994191;28;20054;-61
2023/02/23 12:39:29;;;;;;;49.22;39.70;;;;;;;;;;5012256;28;20030;-59
2023/02/23 12:42:11;;;;;;;49.08;39.33;;;;;;;;;;5019401;28;20497;-60
2023/02/23 12:44:43;;;;;;;47.95;39.28;;;;;;;;;;5031278;28;20087;-61
2023/02/23 12:47:19;;;;;;;56.20;39.17;;;;;;;;;;4995218;28;20536;-62
2023/02/23 12:49:49;;;;;;;51.17;39.22;;;;;;;;;;5011803;28;20057;-61
2023/02/23 12:52:18;;;;;;;50.63;40.60;;;;;;;;;;5012409;28;20141;-59
2023/02/23 12:54:45;;;;;;;48.88;37.10;;;;;;;;;;5011593;28;20041;-57
2023/02/23 12:57:14;;;;;;;46.73;37.30;;;;;;;;;;5011929;28;20018;-61
2023/02/23 13:00:00;;;;;;;50.53;39.83;;;;;;;;;;5012410;28;20025;-61
2023/02/23 13:03:01;;;;;;;51.45;39.15;;;;;;;;;;4994172;28;20026;-62
2023/02/23 13:05:30;;;;;;;47.72;36.85;;;;;;;;;;4916162;29;20404;-61
2023/02/23 13:08:02;;;;;;;48.83;37.83;;;;;;;;;;4997899;28;20406;-59
2023/02/23 13:10:38;;;;;;;51.35;38.05;;;;;;;;;;5002394;28;20034;-59
2023/02/23 13:13:04;;;;;;;44.90;33.67;;;;;;;;;;4991505;28;20395;-59
2023/02/23 13:15:36;;;;;;;43.22;34.80;;;;;;;;;;4991250;28;20019;-60
2023/02/23 13:18:18;;;;;;;44.97;35.67;;;;;;;;;;4974371;28;20080;-60
2023/02/23 13:20:49;;;;;;;43.33;35.65;;;;;;;;;;4992094;28;20399;-61
2023/02/23 13:23:15;;;;;;;44.90;35.53;;;;;;;;;;5007933;28;20508;-57
2023/02/23 13:26:00;;;;;;;40.58;34.80;;;;;;;;;;4992591;28;20040;-58
2023/02/23 13:28:38;;;;;;;40.97;34.15;;;;;;;;;;5011853;28;20022;-57
2023/02/23 13:31:04;;;;;;;42.35;35.63;;;;;;;;;;4994143;28;20159;-56
2023/02/23 13:33:33;;;;;;;44.45;34.30;;;;;;;;;;5010614;28;20066;-58
2023/02/23 13:36:01;;;;;;;46.33;36.25;;;;;;;;;;5010688;28;20014;-58
2023/02/23 13:38:36;;;;;;;44.17;34.28;;;;;;;;;;5011480;28;20021;-61
2023/02/23 13:41:11;;;;;;;43.53;33.47;;;;;;;;;;4993696;28;20053;-57
2023/02/23 13:43:46;;;;;;;43.80;35.67;;;;;;;;;;5010267;28;20371;-58
2023/02/23 13:46:38;;;;;;;47.20;34.05;;;;;;;;;;4993638;28;20508;-57
2023/02/23 13:49:15;;;;;;;44.17;34.53;;;;;;;;;;5007407;28;20068;-60
2023/02/23 13:51:47;;;;;;;42.28;34.28;;;;;;;;;;5010880;28;20032;-60
2023/02/23 13:54:15;;;;;;;45.60;36.03;;;;;;;;;;4992344;28;20036;-61
2023/02/23 13:56:48;;;;;;;48.35;38.08;;;;;;;;;;5010891;28;20061;-59
2023/02/23 13:59:21;;;;;;;46.05;38.42;;;;;;;;;;5011508;28;20215;-59
2023/02/23 14:01:54;;;;;;;49.17;38.78;;;;;;;;;;5010909;28;20083;-58
2023/02/23 14:04:20;;;;;;;49.25;38.22;;;;;;;;;;5010152;28;20033;-59
2023/02/23 14:06:59;;;;;;;48.08;37.78;;;;;;;;;;4993621;28;20057;-61
2023/02/23 14:09:29;;;;;;;49.80;38.65;;;;;;;;;;5010961;28;20118;-57
2023/02/23 14:12:07;;;;;;;54.75;40.65;;;;;;;;;;5003794;28;20026;-60
2023/02/23 14:14:33;;;;;;;52.92;40.47;;;;;;;;;;5010526;28;20576;-60
2023/02/23 14:17:09;;;;;;;51.22;39.70;;;;;;;;;;4993449;28;20034;-60
2023/02/23 14:19:36;;;;;;;49.88;39.90;;;;;;;;;;5011164;28;20076;-62
2023/02/23 14:22:04;;;;;;;54.60;40.47;;;;;;;;;;5011158;28;20116;-54
2023/02/23 14:24:31;;;;;;;56.95;42.15;;;;;;;;;;4992451;28;20022;-56
2023/02/23 14:27:18;;;;;;;58.38;42.17;;;;;;;;;;5011265;28;20122;-55
2023/02/23 14:29:45;;;;;;;52.07;41.33;;;;;;;;;;5015322;28;20079;-58
2023/02/23 14:32:14;;;;;;;55.75;40.78;;;;;;;;;;5015121;28;20367;-59
2023/02/23 14:34:48;;;;;;;60.90;43.90;;;;;;;;;;4996776;28;20017;-60
2023/02/23 14:37:17;;;;;;;61.28;44.05;;;;;;;;;;5014700;28;20068;-58
2023/02/23 14:39:43;;;;;;;58.92;43.45;;;;;;;;;;5014949;28;20529;-57
2023/02/23 14:42:19;;;;;;;59.58;44.10;;;;;;;;;;5014926;28;20076;-56
2023/02/23 14:44:50;;;;;;;52.20;40.47;;;;;;;;;;5013776;28;20108;-62
2023/02/23 14:47:18;;;;;;;57.95;42.47;;;;;;;;;;5014895;28;20045;-58
2023/02/23 14:49:46;;;;;;;55.00;44.13;;;;;;;;;;5014334;28;20018;-59
2023/02/23 14:52:18;;;;;;;64.20;43.08;;;;;;;;;;4997071;28;20429;-58
2023/02/23 14:54:44;;;;;;;60.95;45.10;;;;;;;;;;5014802;28;20431;-56
2023/02/23 14:57:24;;;;;;;67.38;45.78;;;;;;;;;;5016011;28;20104;-56
2023/02/23 14:59:57;;;;;;;66.05;44.88;;;;;;;;;;5000855;28;20084;-60
2023/02/23 15:02:25;;;;;;;68.95;47.55;;;;;;;;;;5019823;28;20478;-57
2023/02/23 15:04:51;;;;;;;59.00;44.78;;;;;;;;;;5020631;28;20041;-58
2023/02/23 15:07:26;;;;;;;64.93;46.03;;;;;;;;;;5017969;28;20037;-57
2023/02/23 15:09:53;;;;;;;56.33;46.35;;;;;;;;;;5016428;28;20049;-59
2023/02/23 15:12:25;;;;;;;61.90;46.85;;;;;;;;;;4667417;28;10000430;-62
2023/02/23 15:14:52;;;;;;;56.50;44.90;;;;;;;;;;4985524;28;20030;-58
2023/02/23 15:17:20;;;;;;;66.53;45.78;;;;;;;;;;5011261;28;20025;-62
2023/02/23 15:19:47;;;;;;;55.63;43.55;;;;;;;;;;5011776;28;20037;-60
2023/02/23 15:22:20;;;;;;;59.38;42.92;;;;;;;;;;5011403;28;20037;-58
2023/02/23 15:24:49;;;;;;;55.40;43.65;;;;;;;;;;5010412;28;20034;-58
2023/02/23 15:27:16;;;;;;;51.88;42.05;;;;;;;;;;5011001;28;20774;-60
2023/02/23 15:29:45;;;;;;;57.60;41.90;;;;;;;;;;5008641;28;20486;-61
2023/02/23 15:32:13;;;;;;;58.75;43.25;;;;;;;;;;5011404;28;20045;-61
2023/02/23 15:34:40;;;;;;;53.33;42.38;;;;;;;;;;5010593;28;20465;-63
2023/02/23 15:37:10;;;;;;;57.78;41.95;;;;;;;;;;5010950;28;20573;-61
2023/02/23 15:39:38;;;;;;;55.33;41.38;;;;;;;;;;4993342;28;20376;-59
2023/02/23 15:42:05;;;;;;;51.55;39.95;;;;;;;;;;5010681;28;20029;-60